Time;durP1;ratioP1;P1;durP2;ratioP2;P2;SDS_P1;SDS_P2;PMS_P1;PMS_P2;Temp;Humidity;BMP_temperature;BMP_pressure;BME280_temperature;BME280_humidity;BME280_pressure;Samples;Min_cycle;Max_cycle;Signal;HPM_P1;HPM_P2
2023/05/17 00:01:54;;;;;;;16.80;13.10;;;;;;;15.08;72.52;99891.55;103630;1250;110741;-65
2023/05/17 00:04:21;;;;;;;19.80;14.60;;;;;;;15.04;72.73;99889.64;103366;1251;138682;-65
2023/05/17 00:06:48;;;;;;;16.40;13.60;;;;;;;15.01;72.81;99895.09;103582;1255;97784;-66
2023/05/17 00:09:15;;;;;;;18.40;14.10;;;;;;;14.95;73.08;99891.74;103532;1250;107315;-66
2023/05/17 00:11:42;;;;;;;20.90;14.70;;;;;;;14.89;73.24;99894.33;103516;1250;97800;-67
2023/05/17 00:14:10;;;;;;;15.70;13.90;;;;;;;14.85;73.58;99894.23;103603;1250;111382;-66
2023/05/17 00:16:37;;;;;;;16.40;14.30;;;;;;;14.81;73.78;99891.64;103370;1251;138658;-66
2023/05/17 00:19:04;;;;;;;19.50;13.40;;;;;;;14.77;73.90;99889.09;103579;1250;97803;-66
2023/05/17 00:21:31;;;;;;;18.50;13.60;;;;;;;14.73;73.93;99890.71;103422;1256;138673;-66
2023/05/17 00:23:58;;;;;;;15.10;13.40;;;;;;;14.68;74.13;99883.77;103463;1256;97801;-66
2023/05/17 00:26:25;;;;;;;18.50;13.20;;;;;;;14.63;74.18;99887.02;103514;1255;111999;-65
2023/05/17 00:28:52;;;;;;;17.70;13.30;;;;;;;14.57;74.25;99887.36;103380;1255;138797;-66
2023/05/17 00:31:19;;;;;;;15.00;13.40;;;;;;;14.53;74.51;99886.86;103548;1253;97684;-66
2023/05/17 00:33:46;;;;;;;17.10;13.30;;;;;;;14.50;74.78;99886.33;103461;1250;139745;-67
2023/05/17 00:36:13;;;;;;;14.80;13.10;;;;;;;14.47;75.14;99886.68;103543;1251;97924;-66
2023/05/17 00:38:40;;;;;;;17.20;13.90;;;;;;;14.43;75.20;99888.08;103611;1251;112163;-67
2023/05/17 00:41:07;;;;;;;14.50;13.00;;;;;;;14.40;75.52;99889.27;103464;1250;138667;-67
2023/05/17 00:43:34;;;;;;;16.10;13.30;;;;;;;14.37;75.56;99890.85;103652;1250;97784;-66
2023/05/17 00:46:01;;;;;;;18.30;14.10;;;;;;;14.34;75.63;99891.55;103425;1250;138719;-66
2023/05/17 00:48:30;;;;;;;17.50;14.60;;;;;;;14.30;75.82;99895.44;103588;1250;97656;-67
2023/05/17 00:50:58;;;;;;;18.60;15.50;;;;;;;14.29;76.17;99892.86;103629;1251;112857;-66
2023/05/17 00:53:27;;;;;;;22.10;16.50;;;;;;;14.28;76.46;99890.98;104750;1250;138826;-66
2023/05/17 00:55:55;;;;;;;23.50;15.30;;;;;;;14.27;76.52;99893.15;104587;1250;95648;-67
2023/05/17 00:58:22;;;;;;;19.50;15.30;;;;;;;14.25;76.62;99891.52;103460;1250;139515;-66
2023/05/17 01:00:51;;;;;;;19.60;14.80;;;;;;;14.25;76.76;99891.67;103625;1251;97868;-66
2023/05/17 01:03:18;;;;;;;18.90;14.90;;;;;;;14.24;76.92;99887.90;103842;1250;111790;-66
2023/05/17 01:05:46;;;;;;;16.20;14.40;;;;;;;14.22;77.07;99888.86;103539;1256;107755;-66
2023/05/17 01:08:13;;;;;;;15.50;13.50;;;;;;;14.19;77.08;99886.04;103555;1251;97650;-67
2023/05/17 01:10:52;;;;;;;16.70;13.70;;;;;;;14.17;77.28;99885.80;104126;1250;138505;-67
2023/05/17 01:17:40;;;;;;;14.30;12.00;;;;;;;14.16;77.81;99882.54;103917;1255;138366;-67
2023/05/17 01:20:18;;;;;;;14.80;11.90;;;;;;;14.14;77.77;99880.70;103534;1255;108696;-66
2023/05/17 01:22:51;;;;;;;14.60;12.50;;;;;;;14.13;77.96;99878.84;104607;1251;139320;-67
2023/05/17 01:25:36;;;;;;;13.10;11.70;;;;;;;14.13;78.01;99881.46;104909;1255;107617;-67
2023/05/17 01:28:04;;;;;;;17.40;13.80;;;;;;;14.11;78.13;99876.15;104174;1253;138908;-67
2023/05/17 01:30:35;;;;;;;16.80;13.30;;;;;;;14.10;78.38;99879.54;103830;1256;110822;-66
2023/05/17 01:33:04;;;;;;;15.60;13.10;;;;;;;14.07;78.26;99874.61;104199;1250;106235;-66
2023/05/17 01:35:35;;;;;;;14.50;12.30;;;;;;;14.03;78.43;99874.14;103459;1251;138677;-66
2023/05/17 01:38:13;;;;;;;14.00;12.00;;;;;;;13.98;78.39;99879.11;103580;1250;108595;-66
2023/05/17 01:40:46;;;;;;;16.20;12.30;;;;;;;13.92;78.43;99876.60;103478;1251;138777;-67
2023/05/17 01:43:18;;;;;;;15.80;12.90;;;;;;;13.89;78.48;99883.08;103585;1251;111960;-66
2023/05/17 01:46:02;;;;;;;13.70;12.20;;;;;;;13.82;78.73;99882.55;103555;1251;138829;-66
2023/05/17 01:48:35;;;;;;;15.80;13.20;;;;;;;13.74;78.90;99881.36;103499;1251;97859;-67
2023/05/17 01:51:09;;;;;;;15.90;13.10;;;;;;;13.68;79.15;99880.67;103517;1251;107437;-66
2023/05/17 01:53:43;;;;;;;14.50;12.20;;;;;;;13.64;79.44;99879.66;103435;1251;138548;-67
2023/05/17 01:56:16;;;;;;;17.50;12.90;;;;;;;13.58;79.68;99880.10;103535;1257;111329;-66
2023/05/17 01:58:47;;;;;;;16.50;12.40;;;;;;;13.50;79.82;99878.41;103405;1250;138894;-67
2023/05/17 02:01:36;;;;;;;14.30;12.90;;;;;;;13.43;80.22;99878.73;103556;1255;97675;-66
2023/05/17 02:04:04;;;;;;;15.40;13.30;;;;;;;13.37;80.50;99880.45;103732;1258;138900;-66
2023/05/17 02:06:33;;;;;;;15.20;13.60;;;;;;;13.31;80.63;99882.68;103517;1251;97787;-66
2023/05/17 02:09:04;;;;;;;15.50;13.60;;;;;;;13.28;81.06;99886.31;103607;1255;110990;-66
2023/05/17 02:11:31;;;;;;;15.80;14.30;;;;;;;13.26;81.33;99887.98;104014;1251;138756;-66
2023/05/17 02:13:59;;;;;;;19.90;14.80;;;;;;;13.22;81.44;99888.52;103779;1251;98313;-66
2023/05/17 02:16:26;;;;;;;17.30;14.10;;;;;;;13.19;81.92;99889.36;103775;1250;139378;-66
2023/05/17 02:18:54;;;;;;;16.60;14.90;;;;;;;13.16;81.90;99886.02;103559;1250;97786;-66
2023/05/17 02:21:22;;;;;;;18.70;16.00;;;;;;;13.13;82.17;99884.60;103553;1251;112697;-66
2023/05/17 02:23:49;;;;;;;18.00;16.20;;;;;;;13.10;82.24;99885.59;103581;1250;107161;-66
2023/05/17 02:26:19;;;;;;;20.20;17.10;;;;;;;13.06;82.55;99887.54;103585;1256;97838;-66
2023/05/17 02:28:50;;;;;;;20.20;16.10;;;;;;;13.02;82.78;99890.89;103447;1251;138530;-66
2023/05/17 02:31:17;;;;;;;19.10;17.10;;;;;;;12.99;83.02;99894.85;103501;1256;97720;-66
2023/05/17 02:33:48;;;;;;;18.80;17.00;;;;;;;12.96;83.50;99896.55;103418;1250;140467;-67
2023/05/17 02:36:21;;;;;;;23.30;19.60;;;;;;;12.96;83.79;99892.55;103555;1255;107890;-66
2023/05/17 02:39:07;;;;;;;;;;;;;;;12.95;83.85;99894.19;103595;1251;97967;-66
2023/05/17 02:41:37;;;;;;;20.40;18.20;;;;;;;12.93;84.05;99893.39;103482;1251;124385;-66
2023/05/17 02:44:08;;;;;;;22.70;20.00;;;;;;;12.90;84.20;99898.55;103951;1251;97780;-66
2023/05/17 02:46:35;;;;;;;21.70;19.40;;;;;;;12.87;84.22;99899.23;103504;1255;138501;-67
2023/05/17 02:49:16;;;;;;;22.30;20.10;;;;;;;12.85;84.70;99903.17;103702;1250;107230;-66
2023/05/17 02:51:43;;;;;;;23.60;21.00;;;;;;;12.85;85.08;99905.47;103682;1251;138843;-67
2023/05/17 02:54:10;;;;;;;23.50;20.70;;;;;;;12.86;85.48;99909.95;103778;1251;108592;-67
2023/05/17 02:56:38;;;;;;;23.60;21.10;;;;;;;12.85;85.46;99914.71;103582;1251;97654;-67
2023/05/17 02:59:05;;;;;;;22.40;19.80;;;;;;;12.84;85.71;99909.17;103452;1251;138739;-67
2023/05/17 03:01:33;;;;;;;22.90;20.50;;;;;;;12.83;85.61;99908.69;103491;1254;110131;-67
2023/05/17 03:04:02;;;;;;;21.40;19.20;;;;;;;12.81;85.75;99908.44;103433;1250;139530;-66
2023/05/17 03:06:40;;;;;;;21.50;19.30;;;;;;;12.79;85.62;99913.59;103503;1256;107821;-64
2023/05/17 03:09:08;;;;;;;21.00;18.80;;;;;;;12.76;85.83;99914.77;104135;1259;95825;-65
2023/05/17 03:11:38;;;;;;;21.10;18.90;;;;;;;12.73;85.83;99914.38;103414;1250;138551;-64
2023/05/17 03:14:12;;;;;;;21.70;18.90;;;;;;;12.70;85.83;99917.66;103511;1251;108603;-64
2023/05/17 03:16:40;;;;;;;21.70;19.30;;;;;;;12.67;86.36;99914.48;103480;1257;138671;-65
2023/05/17 03:19:12;;;;;;;20.40;18.30;;;;;;;12.65;86.64;99921.75;103560;1254;108764;-66
2023/05/17 03:21:41;;;;;;;22.40;19.90;;;;;;;12.65;86.80;99928.53;103427;1256;138838;-66
2023/05/17 03:24:09;;;;;;;21.30;18.90;;;;;;;12.63;86.87;99929.32;103568;1251;114126;-65
2023/05/17 03:26:37;;;;;;;21.90;19.60;;;;;;;12.62;87.11;99930.42;103556;1256;107685;-65
2023/05/17 03:29:05;;;;;;;21.30;19.00;;;;;;;12.61;87.42;99931.14;104629;1256;139020;-66
2023/05/17 03:31:32;;;;;;;21.00;18.90;;;;;;;12.61;87.42;99926.45;103813;1256;108651;-66
2023/05/17 03:34:01;;;;;;;20.30;18.20;;;;;;;12.60;87.59;99918.30;103782;1257;140039;-65
2023/05/17 03:36:30;;;;;;;20.50;18.30;;;;;;;12.58;87.57;99919.11;103522;1251;112248;-65
2023/05/17 03:38:57;;;;;;;19.90;17.70;;;;;;;12.56;87.52;99921.42;103515;1256;108469;-65
2023/05/17 03:41:25;;;;;;;20.90;18.50;;;;;;;12.56;87.47;99926.50;103639;1251;140100;-65
2023/05/17 03:43:53;;;;;;;19.60;17.60;;;;;;;12.55;87.50;99930.53;103990;1257;107217;-65
2023/05/17 03:46:21;;;;;;;19.00;17.00;;;;;;;12.56;87.67;99932.61;103362;1257;138969;-65
2023/05/17 03:48:48;;;;;;;21.40;18.00;;;;;;;12.56;87.54;99929.83;103615;1251;111648;-65
2023/05/17 03:51:18;;;;;;;22.20;18.50;;;;;;;12.56;87.67;99927.56;103638;1254;106366;-65
2023/05/17 03:53:46;;;;;;;18.60;16.70;;;;;;;12.55;87.69;99927.60;103410;1257;138721;-65
2023/05/17 03:56:14;;;;;;;18.50;16.60;;;;;;;12.53;87.96;99927.31;104096;1256;108025;-65
2023/05/17 03:58:41;;;;;;;19.00;17.00;;;;;;;12.52;88.00;99927.90;103432;1256;138898;-65
2023/05/17 04:01:12;;;;;;;18.70;16.80;;;;;;;12.51;88.06;99930.93;103728;1257;111123;-65
2023/05/17 04:03:39;;;;;;;18.60;16.70;;;;;;;12.50;88.21;99933.39;103396;1255;139815;-66
2023/05/17 04:06:09;;;;;;;18.00;16.10;;;;;;;12.51;88.39;99939.99;104822;1251;96165;-66
2023/05/17 04:08:37;;;;;;;18.00;16.10;;;;;;;12.53;88.72;99939.20;103900;1256;107702;-66
2023/05/17 04:11:09;;;;;;;18.00;16.10;;;;;;;12.54;88.45;99939.84;103742;1251;138890;-64
2023/05/17 04:13:37;;;;;;;19.50;17.10;;;;;;;12.54;88.69;99939.64;104046;1251;110709;-64
2023/05/17 04:16:05;;;;;;;17.60;15.90;;;;;;;12.56;88.66;99943.41;103352;1254;138878;-64
2023/05/17 04:18:36;;;;;;;17.30;15.50;;;;;;;12.57;88.54;99944.44;103732;1258;97793;-64
2023/05/17 04:21:04;;;;;;;17.30;15.20;;;;;;;12.57;88.77;99946.73;103527;1251;109253;-64
2023/05/17 04:23:34;;;;;;;16.60;14.90;;;;;;;12.55;88.60;99946.26;103481;1251;138676;-65
2023/05/17 04:26:05;;;;;;;17.50;15.60;;;;;;;12.54;88.54;99951.20;104677;1251;110818;-65
2023/05/17 04:28:34;;;;;;;16.70;14.40;;;;;;;12.55;88.72;99952.20;104703;1256;139447;-65
2023/05/17 04:31:06;;;;;;;17.70;14.80;;;;;;;12.55;88.74;99954.98;104820;1253;96098;-65
2023/05/17 04:33:34;;;;;;;15.30;13.70;;;;;;;12.55;88.75;99951.31;104452;1251;138643;-65
2023/05/17 04:36:01;;;;;;;14.80;13.30;;;;;;;12.53;88.65;99952.96;103524;1251;97658;-65
2023/05/17 04:38:30;;;;;;;15.60;14.00;;;;;;;12.53;88.85;99948.80;103610;1251;112141;-65
2023/05/17 04:41:03;;;;;;;15.40;14.00;;;;;;;12.54;89.11;99949.06;103405;1256;138710;-64
2023/05/17 04:43:33;;;;;;;16.60;14.90;;;;;;;12.57;89.11;99950.55;104072;1251;97852;-65
2023/05/17 04:46:02;;;;;;;15.80;14.10;;;;;;;12.57;89.17;99953.66;103433;1254;138702;-65
2023/05/17 04:48:32;;;;;;;17.50;14.90;;;;;;;12.58;89.12;99958.69;103520;1251;97801;-65
2023/05/17 04:51:02;;;;;;;15.60;14.00;;;;;;;12.58;89.21;99961.13;104904;1250;110068;-65
2023/05/17 04:53:30;;;;;;;16.10;13.30;;;;;;;12.60;89.32;99962.29;104718;1251;138744;-65
2023/05/17 04:55:59;;;;;;;13.50;12.10;;;;;;;12.60;89.19;99964.49;104142;1251;97775;-65
2023/05/17 04:58:27;;;;;;;14.10;11.80;;;;;;;12.62;89.36;99968.08;103388;1257;139986;-64
2023/05/17 05:00:57;;;;;;;13.00;11.80;;;;;;;12.63;89.17;99969.09;103560;1254;97770;-65
2023/05/17 05:03:30;;;;;;;12.60;11.40;;;;;;;12.65;89.16;99972.49;103583;1251;138777;-65
2023/05/17 05:06:02;;;;;;;12.10;10.90;;;;;;;12.65;89.10;99972.83;104036;1254;108311;-65
2023/05/17 05:08:33;;;;;;;11.90;10.80;;;;;;;12.66;88.98;99975.38;103486;1255;97777;-65
2023/05/17 05:11:11;;;;;;;14.40;10.90;;;;;;;12.67;88.88;99979.89;103795;1255;139420;-65
2023/05/17 05:13:40;;;;;;;12.00;10.80;;;;;;;12.66;88.66;99976.11;103734;1256;97801;-65
2023/05/17 05:16:12;;;;;;;11.70;10.50;;;;;;;12.66;88.54;99978.92;104631;1251;138567;-65
2023/05/17 05:18:39;;;;;;;11.50;10.40;;;;;;;12.65;88.80;99982.97;104344;1254;106911;-66
2023/05/17 05:21:06;;;;;;;11.20;10.20;;;;;;;12.66;88.78;99984.28;103564;1257;98300;-65
2023/05/17 05:23:37;;;;;;;12.10;10.80;;;;;;;12.68;88.97;99978.63;104081;1253;138570;-65
2023/05/17 05:26:05;;;;;;;12.20;11.00;;;;;;;12.72;88.88;99976.01;103483;1257;97823;-65
2023/05/17 05:28:32;;;;;;;15.20;12.70;;;;;;;12.75;89.08;99971.54;103441;1254;139485;-65
2023/05/17 05:31:00;;;;;;;14.80;12.30;;;;;;;12.80;89.08;99970.45;103526;1251;108569;-64
2023/05/17 05:33:35;;;;;;;13.40;12.10;;;;;;;12.82;88.87;99973.80;103435;1255;138966;-65
2023/05/17 05:36:12;;;;;;;13.70;11.80;;;;;;;12.86;89.00;99974.48;103555;1256;108118;-65
2023/05/17 05:38:40;;;;;;;14.20;11.80;;;;;;;12.89;88.98;99971.73;103473;1257;97803;-65
2023/05/17 05:41:07;;;;;;;12.80;11.50;;;;;;;12.92;89.10;99964.96;103454;1256;138893;-65
2023/05/17 05:43:36;;;;;;;12.60;11.30;;;;;;;12.96;89.06;99946.46;103554;1257;107318;-66
2023/05/17 05:46:04;;;;;;;14.80;12.10;;;;;;;13.00;88.71;99932.85;103895;1251;138843;-66
2023/05/17 05:48:32;;;;;;;14.40;11.20;;;;;;;13.06;88.71;99924.16;103527;1257;108882;-66
2023/05/17 05:50:59;;;;;;;11.10;10.00;;;;;;;13.12;88.45;99928.61;103542;1251;97778;-66
2023/05/17 05:53:27;;;;;;;10.40;9.00;;;;;;;13.13;88.02;99933.83;103385;1251;137669;-65
2023/05/17 05:55:54;;;;;;;12.80;8.90;;;;;;;13.11;87.53;99934.78;103582;1251;108766;-66
2023/05/17 05:58:22;;;;;;;9.60;8.70;;;;;;;13.13;87.91;99937.67;104045;1255;139279;-66
2023/05/17 06:01:10;;;;;;;9.10;8.20;;;;;;;13.16;87.98;99947.10;103545;1256;108074;-66
2023/05/17 06:03:38;;;;;;;9.80;8.80;;;;;;;13.17;87.60;99957.70;103197;1263;315426;-66
2023/05/17 06:06:06;;;;;;;9.70;8.30;;;;;;;13.18;87.69;99967.63;103619;1256;112486;-65
2023/05/17 06:08:33;;;;;;;8.60;7.80;;;;;;;13.15;87.54;99970.21;104106;1251;108766;-66
2023/05/17 06:11:01;;;;;;;9.10;8.10;;;;;;;13.14;87.44;99976.36;103470;1251;138365;-65
2023/05/17 06:13:29;;;;;;;10.40;9.20;;;;;;;13.14;87.58;99974.95;103627;1254;108987;-65
2023/05/17 06:15:59;;;;;;;9.60;8.60;;;;;;;13.14;87.37;99975.99;103475;1251;138815;-65
2023/05/17 06:18:27;;;;;;;9.70;8.70;;;;;;;13.17;87.43;99976.90;103632;1251;110864;-65
2023/05/17 06:20:55;;;;;;;9.40;8.50;;;;;;;13.17;87.41;99985.47;103527;1251;108525;-66
2023/05/17 06:23:23;;;;;;;8.90;8.10;;;;;;;13.15;87.32;99986.77;103439;1257;138343;-66
2023/05/17 06:25:52;;;;;;;9.10;8.10;;;;;;;13.15;87.24;99990.79;103612;1251;107238;-66
2023/05/17 06:28:20;;;;;;;10.10;9.10;;;;;;;13.13;87.32;99990.53;103683;1251;138307;-65
2023/05/17 06:30:48;;;;;;;11.80;9.80;;;;;;;13.15;87.56;99993.41;103572;1257;112010;-65
2023/05/17 06:33:15;;;;;;;9.60;8.60;;;;;;;13.16;87.51;99996.00;103477;1257;110439;-66
2023/05/17 06:35:43;;;;;;;12.90;11.50;;;;;;;13.17;87.51;99996.27;104150;1251;138600;-66
2023/05/17 06:38:23;;;;;;;14.70;9.70;;;;;;;13.18;87.43;99996.44;103630;1251;108588;-66
2023/05/17 06:40:54;;;;;;;12.30;10.10;;;;;;;13.18;87.40;100000.80;103501;1251;138496;-66
2023/05/17 06:43:22;;;;;;;13.70;10.60;;;;;;;13.18;87.37;100004.81;103539;1256;110905;-64
2023/05/17 06:45:50;;;;;;;12.30;9.40;;;;;;;13.18;87.29;100016.67;104085;1251;139204;-66
2023/05/17 06:48:17;;;;;;;11.00;9.10;;;;;;;13.16;87.09;100021.83;103656;1256;98153;-65
2023/05/17 06:50:53;;;;;;;10.60;8.90;;;;;;;13.14;87.15;100028.02;104494;1251;108093;-66
2023/05/17 06:53:21;;;;;;;11.40;9.20;;;;;;;13.13;87.10;100033.98;103412;1253;138729;-65
2023/05/17 06:55:48;;;;;;;10.10;8.80;;;;;;;13.12;87.47;100035.44;103574;1251;111874;-66
2023/05/17 06:58:23;;;;;;;11.60;8.50;;;;;;;13.09;87.20;100038.20;103386;1257;138776;-66
2023/05/17 07:00:51;;;;;;;9.80;8.80;;;;;;;13.07;87.09;100037.09;103502;1256;98342;-66
2023/05/17 07:03:19;;;;;;;11.00;8.70;;;;;;;13.06;87.14;100036.57;103567;1251;108562;-66
2023/05/17 07:05:47;;;;;;;12.20;9.00;;;;;;;13.08;87.42;100033.34;103448;1254;138627;-66
2023/05/17 07:08:18;;;;;;;11.40;9.00;;;;;;;13.09;87.61;100032.77;103620;1251;111429;-66
2023/05/17 07:10:52;;;;;;;12.10;10.20;;;;;;;13.09;87.45;100029.81;103421;1256;139728;-66
2023/05/17 07:13:20;;;;;;;13.40;9.60;;;;;;;13.11;87.48;100026.25;103709;1251;98306;-65
2023/05/17 07:15:47;;;;;;;11.50;9.90;;;;;;;13.13;87.49;100028.59;103397;1256;139501;-66
2023/05/17 07:18:15;;;;;;;12.70;10.40;;;;;;;13.17;87.82;100034.02;103679;1253;97800;-66
2023/05/17 07:20:42;;;;;;;14.20;9.80;;;;;;;13.20;87.65;100035.80;104160;1251;111655;-65
2023/05/17 07:23:10;;;;;;;11.00;9.70;;;;;;;13.23;87.61;100034.08;103427;1251;138668;-66
2023/05/17 07:25:39;;;;;;;11.40;9.50;;;;;;;13.25;87.77;100035.55;103607;1255;98315;-66
2023/05/17 07:28:15;;;;;;;12.50;10.50;;;;;;;13.27;87.68;100032.99;103809;1255;139067;-66
2023/05/17 07:30:43;;;;;;;11.70;9.50;;;;;;;13.28;87.60;100029.30;104158;1251;97855;-66
2023/05/17 07:33:10;;;;;;;12.50;9.30;;;;;;;13.28;87.02;100029.84;103905;1256;112839;-66
2023/05/17 07:35:38;;;;;;;11.50;8.60;;;;;;;13.30;86.93;100031.33;103726;1251;139391;-66
2023/05/17 07:38:06;;;;;;;16.50;11.00;;;;;;;13.36;87.28;100030.72;104114;1251;98043;-66
2023/05/17 07:40:34;;;;;;;14.60;10.30;;;;;;;13.41;87.29;100028.38;103442;1250;138736;-66
2023/05/17 07:43:02;;;;;;;11.70;9.80;;;;;;;13.46;87.21;100033.53;103561;1251;97807;-66
2023/05/17 07:45:41;;;;;;;12.00;9.70;;;;;;;13.49;87.16;100037.08;103415;1251;138707;-66
2023/05/17 07:48:12;;;;;;;12.50;9.10;;;;;;;13.49;86.99;100046.48;103529;1251;106289;-66
2023/05/17 07:50:42;;;;;;;11.70;9.70;;;;;;;13.50;86.84;100048.21;103671;1254;97881;-66
2023/05/17 07:53:22;;;;;;;10.30;8.50;;;;;;;13.48;86.55;100050.92;103392;1251;138652;-65
2023/05/17 07:56:10;;;;;;;11.20;8.70;;;;;;;13.46;86.53;100052.21;103538;1251;97845;-66
2023/05/17 07:58:38;;;;;;;10.00;8.40;;;;;;;13.46;86.47;100054.48;103425;1251;138729;-66
2023/05/17 08:01:08;;;;;;;9.20;8.30;;;;;;;13.45;86.49;100054.17;103566;1256;107289;-66
2023/05/17 08:03:36;;;;;;;7.90;6.90;;;;;;;13.44;86.22;100059.65;103867;1251;139065;-66
2023/05/17 08:06:05;;;;;;;7.90;6.90;;;;;;;13.42;86.27;100060.29;103520;1251;107569;-66
2023/05/17 08:08:34;;;;;;;8.80;7.60;;;;;;;13.43;86.46;100063.69;103677;1251;97803;-66
2023/05/17 08:11:02;;;;;;;8.10;7.40;;;;;;;13.47;86.64;100061.08;103422;1251;138351;-66
2023/05/17 08:13:29;;;;;;;8.70;7.80;;;;;;;13.50;86.64;100055.35;104075;1251;107732;-65
2023/05/17 08:16:02;;;;;;;7.70;7.00;;;;;;;13.51;86.49;100052.00;103513;1253;138636;-65
2023/05/17 08:18:41;;;;;;;10.30;7.40;;;;;;;13.51;86.39;100049.52;103569;1254;108541;-66
2023/05/17 08:21:09;;;;;;;7.30;6.60;;;;;;;13.52;86.24;100058.03;104338;1250;97757;-66
2023/05/17 08:23:37;;;;;;;7.90;7.00;;;;;;;13.54;85.95;100053.08;103668;1251;138327;-65
2023/05/17 08:26:05;;;;;;;6.70;6.10;;;;;;;13.55;85.98;100055.46;103436;1256;109773;-66
2023/05/17 08:28:33;;;;;;;8.90;5.90;;;;;;;13.55;85.76;100058.28;103482;1251;138522;-66
2023/05/17 08:31:01;;;;;;;8.80;6.10;;;;;;;13.52;85.72;100064.34;103585;1256;108427;-66
2023/05/17 08:33:28;;;;;;;6.90;5.60;;;;;;;13.53;85.90;100067.46;103882;1251;97796;-66
2023/05/17 08:35:58;;;;;;;7.60;5.80;;;;;;;13.52;85.78;100069.07;104381;1251;111885;-66
2023/05/17 08:38:25;;;;;;;5.90;5.40;;;;;;;13.52;85.96;100070.27;103555;1251;108588;-66
2023/05/17 08:40:58;;;;;;;7.10;5.40;;;;;;;13.55;85.95;100069.77;104005;1251;140404;-66
2023/05/17 08:43:26;;;;;;;5.90;5.30;;;;;;;13.61;85.83;100072.64;103597;1251;108739;-66
2023/05/17 08:45:57;;;;;;;6.60;5.30;;;;;;;13.64;85.68;100075.98;103508;1251;138674;-66
2023/05/17 08:48:30;;;;;;;5.50;5.00;;;;;;;13.63;85.32;100081.27;103576;1250;111615;-66
2023/05/17 08:51:10;;;;;;;6.20;5.60;;;;;;;13.58;84.91;100088.50;103976;1251;107193;-66
2023/05/17 08:53:41;;;;;;;6.20;5.60;;;;;;;13.57;84.93;100095.54;103533;1251;138753;-66
2023/05/17 08:56:11;;;;;;;6.70;5.40;;;;;;;13.57;85.03;100099.70;103681;1251;108348;-66
2023/05/17 08:58:44;;;;;;;6.70;6.00;;;;;;;13.59;85.10;100101.90;104152;1251;139321;-66
2023/05/17 09:01:25;;;;;;;6.40;5.80;;;;;;;13.60;84.55;100099.40;103631;1251;111358;-66
2023/05/17 09:03:55;;;;;;;8.60;6.20;;;;;;;13.60;84.27;100097.83;103655;1255;138776;-66
2023/05/17 09:06:24;;;;;;;6.80;6.10;;;;;;;13.65;84.40;100096.06;103741;1253;98406;-66
2023/05/17 09:08:53;;;;;;;7.90;7.00;;;;;;;13.64;84.27;100098.88;104072;1257;107137;-66
2023/05/17 09:11:28;;;;;;;9.20;8.30;;;;;;;13.62;84.35;100096.33;103280;1253;138498;-66
2023/05/17 09:14:00;;;;;;;10.40;7.90;;;;;;;13.60;84.23;100099.05;103419;1253;111279;-66
2023/05/17 09:16:30;;;;;;;9.00;8.10;;;;;;;13.59;84.26;100105.21;103273;1253;138705;-66
2023/05/17 09:18:58;;;;;;;9.00;7.90;;;;;;;13.59;84.30;100100.83;103533;1254;97769;-66
2023/05/17 09:21:39;;;;;;;9.60;7.90;;;;;;;13.62;84.08;100098.79;104640;1253;138489;-67
2023/05/17 09:24:08;;;;;;;10.80;8.60;;;;;;;13.70;83.98;100095.64;103470;1257;97794;-66
2023/05/17 09:26:42;;;;;;;10.10;8.00;;;;;;;13.77;83.89;100095.61;103761;1253;110810;-66
2023/05/17 09:29:12;;;;;;;8.10;7.30;;;;;;;13.82;83.83;100098.35;104411;1256;138649;-67
2023/05/17 09:31:40;;;;;;;9.90;8.40;;;;;;;13.84;83.64;100101.06;104862;1253;95861;-67
2023/05/17 09:34:08;;;;;;;9.20;8.30;;;;;;;13.84;83.51;100098.44;103592;1253;138629;-66
2023/05/17 09:36:37;;;;;;;9.10;8.10;;;;;;;13.77;83.10;100105.92;103422;1256;97920;-67
2023/05/17 09:39:10;;;;;;;10.50;9.40;;;;;;;13.71;83.36;100113.25;104060;1253;111332;-67
2023/05/17 09:41:45;;;;;;;11.00;9.40;;;;;;;13.63;82.93;100117.29;104194;1254;139195;-67
2023/05/17 09:44:14;;;;;;;12.70;9.10;;;;;;;13.54;82.90;100123.98;104273;1254;98304;-67
2023/05/17 09:46:47;;;;;;;10.30;9.20;;;;;;;13.44;82.76;100121.45;103543;1253;138524;-67
2023/05/17 09:49:16;;;;;;;12.00;9.80;;;;;;;13.36;82.84;100120.65;103426;1256;97813;-66
2023/05/17 09:51:47;;;;;;;11.10;9.30;;;;;;;13.25;82.59;100118.63;103382;1256;138855;-67
2023/05/17 09:54:16;;;;;;;14.00;9.40;;;;;;;13.14;82.43;100123.86;103472;1253;108106;-66
2023/05/17 09:56:43;;;;;;;9.70;8.70;;;;;;;13.01;82.18;100128.45;103441;1253;97787;-67
2023/05/17 09:59:15;;;;;;;10.80;9.00;;;;;;;12.90;82.49;100138.18;103391;1256;138452;-66
2023/05/17 10:01:53;;;;;;;12.70;9.30;;;;;;;12.82;82.91;100138.17;103610;1257;97810;-66
2023/05/17 10:04:23;;;;;;;11.90;9.50;;;;;;;12.75;83.00;100140.21;103224;1254;138562;-66
2023/05/17 10:06:56;;;;;;;11.20;9.80;;;;;;;12.70;83.07;100145.29;103291;1254;107511;-66
2023/05/17 10:09:25;;;;;;;10.50;9.20;;;;;;;12.66;83.38;100142.67;103547;1257;97913;-66
2023/05/17 10:11:56;;;;;;;13.10;10.20;;;;;;;12.62;83.47;100143.02;103579;1257;139006;-65
2023/05/17 10:14:31;;;;;;;17.60;9.80;;;;;;;12.60;83.36;100146.63;103354;1260;97668;-65
2023/05/17 10:17:01;;;;;;;13.90;10.10;;;;;;;12.59;83.48;100147.73;103277;1254;138477;-65
2023/05/17 10:19:30;;;;;;;14.70;9.90;;;;;;;12.58;83.43;100144.09;103254;1255;107042;-65
2023/05/17 10:21:58;;;;;;;14.40;10.10;;;;;;;12.56;83.02;100146.44;103222;1254;139166;-67
2023/05/17 10:24:53;;;;;;;20.20;11.30;;;;;;;12.48;82.57;100146.61;103296;1257;108325;-67
2023/05/17 10:27:26;;;;;;;15.20;10.60;;;;;;;12.43;82.79;100150.31;103279;1257;97857;-67
2023/05/17 10:30:07;;;;;;;17.10;10.30;;;;;;;12.41;83.10;100156.13;103549;1254;110411;-65
2023/05/17 10:32:36;;;;;;;15.30;10.40;;;;;;;12.42;83.45;100158.90;103380;1254;107866;-65
2023/05/17 10:35:08;;;;;;;12.50;10.00;;;;;;;12.43;83.58;100158.66;103220;1254;138948;-66
2023/05/17 10:37:39;;;;;;;17.20;10.60;;;;;;;12.46;83.75;100157.83;103767;1254;108164;-66
2023/05/17 10:40:11;;;;;;;17.70;10.40;;;;;;;12.49;83.40;100156.67;103280;1254;139211;-66
2023/05/17 10:42:42;;;;;;;15.30;10.00;;;;;;;12.51;83.39;100156.74;103384;1254;112488;-66
2023/05/17 10:45:11;;;;;;;14.60;9.40;;;;;;;12.57;83.40;100157.73;103359;1254;107970;-66
2023/05/17 10:47:42;;;;;;;18.70;9.80;;;;;;;12.60;83.01;100155.52;103659;1257;138600;-66
2023/05/17 10:50:24;;;;;;;14.60;9.30;;;;;;;12.64;82.90;100158.67;103339;1254;108451;-66
2023/05/17 10:52:59;;;;;;;15.50;9.60;;;;;;;12.67;82.94;100162.18;103665;1254;138798;-66
2023/05/17 10:55:39;;;;;;;15.60;9.00;;;;;;;12.70;83.07;100164.81;103363;1254;110896;-66
2023/05/17 10:58:18;;;;;;;11.50;7.80;;;;;;;12.73;82.83;100165.77;103234;1254;138881;-66
2023/05/17 11:00:48;;;;;;;17.00;8.40;;;;;;;12.75;82.61;100163.78;103538;1257;98340;-66
2023/05/17 11:03:17;;;;;;;13.50;8.20;;;;;;;12.81;82.74;100164.05;103649;1257;108791;-66
2023/05/17 11:06:05;;;;;;;17.10;8.20;;;;;;;12.89;82.82;100161.42;103824;1253;139162;-66
2023/05/17 11:09:06;;;;;;;10.40;8.00;;;;;;;12.97;82.63;100163.88;103582;1254;111290;-66
2023/05/17 11:11:35;;;;;;;19.70;8.60;;;;;;;13.11;82.97;100167.65;103188;1257;138792;-66
2023/05/17 11:14:05;;;;;;;10.20;8.10;;;;;;;13.21;83.10;100171.05;103328;1257;97927;-66
2023/05/17 11:16:38;;;;;;;12.30;8.10;;;;;;;13.30;82.81;100176.23;103201;1254;138479;-66
2023/05/17 11:19:10;;;;;;;14.90;9.00;;;;;;;13.41;82.85;100177.70;103585;1254;97813;-66
2023/05/17 11:21:45;;;;;;;18.70;8.90;;;;;;;13.49;82.70;100180.81;103412;1254;111062;-66
2023/05/17 11:24:16;;;;;;;13.70;7.90;;;;;;;13.51;82.39;100178.10;103357;1257;108358;-66